Portada
METAR-TAF:

METAR-TAF

Aeroports :

Lyndonville, Vermont, Estats Units d'Amèrica

latitud: 44-34-09N, longitud: 072-01-05W, altitud: 362 m

Observació

L'informe es va fer fa 21 minuts, a les 11:55 UTC
Vent calma
Temperatura 6°C
Humitat 93%
Pressió 1026 hPa
Visibilitat: 1.6 km
boirina

METAR: KCDA 221155Z AUTO 00000KT 1SM BR VV007 06/05 A3029 RMK AO2 T00550051 10102 20046

Hora: 08:16 (12:16 UTC)


TAF: manca

Observacions i pronòstics meteorològics de més de 4000 aeroports (METAR i TAF).

Les estacions disponibles són els punts grocs i vermells al mapa.

Posi el ratolí al punt desitjat per veure el nom de l'estació.

Feu clic per veure les observacions i els pronòstics meteorològics.

Per canviar el mapa: feu clic els botons verds amb una creu de color negre per apropar; al botó verd amb un guió per allunyar la imatge; o en les fletxes verdes per a mapes adjacents.


METAR-TAF: